createdAt,value
2018-11-25T00:02:13.276Z,2.70
2018-11-25T00:04:41.518Z,2.60
2018-11-25T00:07:08.969Z,2.60
2018-11-25T00:09:36.438Z,2.60
2018-11-25T00:12:04.718Z,2.70
2018-11-25T00:14:32.181Z,2.60
2018-11-25T00:16:59.750Z,2.70
2018-11-25T00:19:27.219Z,2.70
2018-11-25T00:21:54.733Z,2.80
2018-11-25T00:24:22.241Z,2.70
2018-11-25T00:26:49.810Z,2.70
2018-11-25T00:29:17.293Z,2.80
2018-11-25T00:31:45.520Z,2.90
2018-11-25T00:34:13.014Z,2.80
2018-11-25T00:36:40.487Z,3.00
2018-11-25T00:39:09.575Z,2.90
2018-11-25T00:41:37.865Z,2.90
2018-11-25T00:44:05.323Z,2.90
2018-11-25T00:46:32.890Z,2.90
2018-11-25T00:49:00.352Z,2.80
2018-11-25T00:51:28.577Z,2.90
2018-11-25T00:53:56.133Z,2.90
2018-11-25T00:56:23.590Z,2.80
2018-11-25T00:58:51.063Z,2.80
2018-11-25T01:01:19.306Z,2.70
2018-11-25T01:03:46.781Z,2.70
2018-11-25T01:06:14.253Z,2.70
2018-11-25T01:08:41.724Z,2.70
2018-11-25T01:11:09.189Z,2.60
2018-11-25T01:13:37.070Z,2.50
2018-11-25T01:16:04.521Z,2.50
2018-11-25T01:18:31.996Z,2.70
2018-11-25T01:20:59.453Z,2.70
2018-11-25T01:23:26.956Z,2.80
2018-11-25T01:25:54.419Z,2.70
2018-11-25T01:28:21.885Z,2.80
2018-11-25T01:30:50.119Z,2.80
2018-11-25T01:33:17.617Z,2.80
2018-11-25T01:35:45.080Z,2.90
2018-11-25T01:38:12.542Z,2.90
2018-11-25T01:40:40.102Z,2.80
2018-11-25T01:43:07.582Z,2.70
2018-11-25T01:45:35.127Z,2.70
2018-11-25T01:48:03.605Z,2.80
2018-11-25T01:50:31.079Z,2.70
2018-11-25T01:52:58.691Z,2.60
2018-11-25T01:55:26.175Z,2.70
2018-11-25T01:57:53.626Z,2.80
2018-11-25T02:00:21.130Z,2.80
2018-11-25T02:02:48.597Z,2.80
2018-11-25T02:05:16.068Z,2.70
2018-11-25T02:07:43.603Z,2.70
2018-11-25T02:10:11.178Z,2.60
2018-11-25T02:12:38.648Z,2.50
2018-11-25T02:15:06.136Z,2.50
2018-11-25T02:17:34.424Z,2.40
2018-11-25T02:20:01.862Z,2.40
2018-11-25T02:22:29.344Z,2.20
2018-11-25T02:24:57.588Z,2.10
2018-11-25T02:27:25.053Z,2.10
2018-11-25T02:29:52.524Z,2.10
2018-11-25T02:32:20.001Z,2.10
2018-11-25T02:34:48.240Z,2.00
2018-11-25T02:37:15.711Z,2.00
2018-11-25T02:39:43.184Z,2.10
2018-11-25T02:42:10.644Z,2.00
2018-11-25T02:44:38.113Z,2.10
2018-11-25T02:47:06.368Z,2.20
2018-11-25T02:49:33.892Z,2.20
2018-11-25T02:52:01.408Z,2.20
2018-11-25T02:54:28.889Z,2.20
2018-11-25T02:56:57.155Z,2.30
2018-11-25T02:59:24.631Z,2.20
2018-11-25T03:01:52.889Z,2.50
2018-11-25T03:04:20.450Z,2.40
2018-11-25T03:06:48.741Z,2.30
2018-11-25T03:09:16.245Z,2.20
2018-11-25T03:11:43.702Z,2.20
2018-11-25T03:14:11.190Z,2.30
2018-11-25T03:16:38.659Z,2.20
2018-11-25T03:19:06.129Z,2.30
2018-11-25T03:21:33.613Z,2.20
2018-11-25T03:24:01.062Z,2.40
2018-11-25T03:26:28.636Z,2.40
2018-11-25T03:28:56.085Z,2.40
2018-11-25T03:31:23.570Z,2.40
2018-11-25T03:33:51.116Z,2.50
2018-11-25T03:36:18.586Z,2.60
2018-11-25T03:38:46.148Z,2.50
2018-11-25T03:41:15.123Z,2.50
2018-11-25T03:43:42.584Z,2.50
2018-11-25T03:46:10.070Z,2.60
2018-11-25T03:48:37.526Z,2.50
2018-11-25T03:51:05.010Z,2.40
2018-11-25T03:53:33.241Z,2.50
2018-11-25T03:56:00.728Z,2.50
2018-11-25T03:58:28.193Z,2.50
2018-11-25T04:00:55.657Z,2.40
2018-11-25T04:03:23.205Z,2.40
2018-11-25T04:05:50.678Z,2.40
2018-11-25T04:08:18.191Z,2.40
2018-11-25T04:10:45.706Z,2.50
2018-11-25T04:13:13.989Z,2.40
2018-11-25T04:15:41.448Z,2.40
2018-11-25T04:18:08.920Z,2.60
2018-11-25T04:20:37.189Z,2.40
2018-11-25T04:23:06.343Z,2.40
2018-11-25T04:25:33.814Z,2.50
2018-11-25T04:28:01.276Z,2.50
2018-11-25T04:30:28.776Z,2.50
2018-11-25T04:32:56.238Z,2.50
2018-11-25T04:35:23.717Z,2.50
2018-11-25T04:37:51.953Z,2.60
2018-11-25T04:40:19.488Z,2.60
2018-11-25T04:42:47.002Z,2.60
2018-11-25T04:45:14.465Z,2.60
2018-11-25T04:47:41.925Z,2.60
2018-11-25T04:50:09.382Z,2.60
2018-11-25T04:52:36.856Z,2.70
2018-11-25T04:55:04.405Z,2.70
2018-11-25T04:57:33.373Z,2.60
2018-11-25T05:00:00.869Z,2.60
2018-11-25T05:02:28.333Z,2.60
2018-11-25T05:04:55.810Z,2.70
2018-11-25T05:07:24.063Z,2.70
2018-11-25T05:09:51.688Z,2.60
2018-11-25T05:12:19.208Z,2.70
2018-11-25T05:14:46.673Z,2.70
2018-11-25T05:17:14.141Z,2.80
2018-11-25T05:19:41.620Z,2.80
2018-11-25T05:22:09.850Z,2.80
2018-11-25T05:24:37.317Z,2.80
2018-11-25T05:27:04.783Z,2.90
2018-11-25T05:29:32.240Z,2.80
2018-11-25T05:31:59.698Z,2.90
2018-11-25T05:34:27.276Z,2.80
2018-11-25T05:36:54.741Z,2.80
2018-11-25T05:39:22.974Z,2.90
2018-11-25T05:41:50.435Z,2.80
2018-11-25T05:44:17.940Z,2.90
2018-11-25T05:46:45.427Z,2.90
2018-11-25T05:49:13.693Z,2.90
2018-11-25T05:51:41.147Z,2.90
2018-11-25T05:54:09.380Z,2.90
2018-11-25T05:56:36.843Z,2.90
2018-11-25T05:59:04.350Z,2.80
2018-11-25T06:01:31.826Z,2.90
2018-11-25T06:04:00.054Z,2.90
2018-11-25T06:06:27.519Z,2.80
2018-11-25T06:08:54.991Z,2.90
2018-11-25T06:11:22.460Z,2.90
2018-11-25T06:13:49.932Z,2.90
2018-11-25T06:16:17.401Z,2.90
2018-11-25T06:18:44.875Z,2.90
2018-11-25T06:21:12.328Z,2.90
2018-11-25T06:23:39.798Z,2.90
2018-11-25T06:26:08.032Z,2.80
2018-11-25T06:28:35.489Z,2.80
2018-11-25T06:31:03.875Z,2.80
2018-11-25T06:33:31.347Z,2.80
2018-11-25T06:35:58.800Z,2.80
2018-11-25T06:38:26.282Z,2.80
2018-11-25T06:40:53.856Z,2.80
2018-11-25T06:43:21.363Z,2.70
2018-11-25T06:45:48.859Z,2.70
2018-11-25T06:48:16.329Z,2.70
2018-11-25T06:50:43.895Z,2.70
2018-11-25T06:53:11.364Z,2.70
2018-11-25T06:55:38.830Z,2.60
2018-11-25T06:58:07.812Z,2.60
2018-11-25T07:00:35.277Z,2.60
2018-11-25T07:03:02.741Z,2.70
2018-11-25T07:05:30.195Z,2.70
2018-11-25T07:07:57.767Z,2.70
2018-11-25T07:10:25.232Z,2.60
2018-11-25T07:12:53.512Z,2.60
2018-11-25T07:15:20.977Z,2.70
2018-11-25T07:17:48.427Z,2.70
2018-11-25T07:20:16.000Z,2.70
2018-11-25T07:22:43.470Z,2.70
2018-11-25T07:25:10.929Z,2.70
2018-11-25T07:27:38.481Z,2.70
2018-11-25T07:30:07.755Z,2.70
2018-11-25T07:32:34.212Z,2.70
2018-11-25T07:35:01.932Z,2.70
2018-11-25T07:37:30.188Z,2.70
2018-11-25T07:39:57.646Z,2.70
2018-11-25T07:42:25.108Z,2.70
2018-11-25T07:44:52.584Z,2.70
2018-11-25T07:47:20.825Z,2.70
2018-11-25T07:49:48.295Z,2.70
2018-11-25T07:52:15.755Z,2.70
2018-11-25T07:54:46.628Z,2.60
2018-11-25T07:57:14.858Z,2.60
2018-11-25T07:59:42.434Z,2.60
2018-11-25T08:02:09.885Z,2.60
2018-11-25T08:04:37.361Z,2.70
2018-11-25T08:07:04.922Z,2.70
2018-11-25T08:09:32.380Z,2.70
2018-11-25T08:11:59.958Z,2.70
2018-11-25T08:14:27.413Z,2.70
2018-11-25T08:16:54.880Z,2.70
2018-11-25T08:19:22.333Z,2.70
2018-11-25T08:21:49.809Z,2.80
2018-11-25T08:24:17.257Z,2.90
2018-11-25T08:26:45.529Z,2.90
2018-11-25T08:29:12.997Z,2.90
2018-11-25T08:31:40.553Z,3.00
2018-11-25T08:34:08.021Z,3.00
2018-11-25T08:36:35.585Z,3.00
2018-11-25T08:39:03.975Z,3.00
2018-11-25T08:41:31.447Z,3.00
2018-11-25T08:43:59.656Z,3.00
2018-11-25T08:46:27.243Z,3.00
2018-11-25T08:48:54.704Z,3.00
2018-11-25T08:51:22.221Z,3.00
2018-11-25T08:53:49.680Z,3.00
2018-11-25T08:56:17.944Z,3.00
2018-11-25T08:58:45.411Z,3.00
2018-11-25T09:01:12.880Z,3.10
2018-11-25T09:03:40.340Z,3.10
2018-11-25T09:06:07.949Z,3.10
2018-11-25T09:08:36.277Z,3.20
2018-11-25T09:11:04.641Z,3.20
2018-11-25T09:13:32.100Z,3.20
2018-11-25T09:15:59.586Z,3.20
2018-11-25T09:18:27.095Z,3.30
2018-11-25T09:20:55.421Z,3.30
2018-11-25T09:23:22.870Z,3.30
2018-11-25T09:25:50.327Z,3.30
2018-11-25T09:28:17.798Z,3.30
2018-11-25T09:30:45.268Z,3.30
2018-11-25T09:33:12.720Z,3.30
2018-11-25T09:35:40.195Z,3.40
2018-11-25T09:38:07.654Z,3.30
2018-11-25T09:40:35.114Z,3.40
2018-11-25T09:43:02.671Z,3.30
2018-11-25T09:45:30.131Z,3.30
2018-11-25T09:47:57.604Z,3.40
2018-11-25T09:50:25.074Z,3.40
2018-11-25T09:52:52.530Z,3.40
2018-11-25T09:55:19.996Z,3.40
2018-11-25T09:57:47.463Z,3.40
2018-11-25T10:00:15.010Z,3.50
2018-11-25T10:02:42.592Z,3.50
2018-11-25T10:05:10.140Z,3.50
2018-11-25T10:07:37.704Z,3.50
2018-11-25T10:10:05.272Z,3.50
2018-11-25T10:12:32.751Z,3.50
2018-11-25T10:15:01.010Z,3.50
2018-11-25T10:17:28.479Z,3.50
2018-11-25T10:19:55.957Z,3.50
2018-11-25T10:22:24.228Z,3.50
2018-11-25T10:24:51.739Z,3.50
2018-11-25T10:27:19.198Z,3.50
2018-11-25T10:29:46.658Z,3.50
2018-11-25T10:32:14.177Z,3.60
2018-11-25T10:34:41.639Z,3.60
2018-11-25T10:37:09.401Z,3.60
2018-11-25T10:39:37.626Z,3.60
2018-11-25T10:42:05.091Z,3.60
2018-11-25T10:44:32.553Z,3.60
2018-11-25T10:47:00.053Z,3.60
2018-11-25T10:49:27.511Z,3.70
2018-11-25T10:51:55.003Z,3.70
2018-11-25T10:54:22.456Z,3.70
2018-11-25T10:56:50.001Z,3.60
2018-11-25T10:59:17.583Z,3.60
2018-11-25T11:01:46.542Z,3.70
2018-11-25T11:04:14.011Z,3.70
2018-11-25T11:06:41.469Z,3.60
2018-11-25T11:09:08.988Z,3.60
2018-11-25T11:11:37.221Z,3.70
2018-11-25T11:14:04.928Z,3.70
2018-11-25T11:16:33.199Z,3.70
2018-11-25T11:19:00.644Z,3.70
2018-11-25T11:21:28.880Z,3.80
2018-11-25T11:23:56.337Z,3.70
2018-11-25T11:26:23.848Z,3.70
2018-11-25T11:28:51.334Z,3.70
2018-11-25T11:31:18.794Z,3.80
2018-11-25T11:33:47.043Z,3.80
2018-11-25T11:36:14.610Z,3.80
2018-11-25T11:38:42.860Z,3.90
2018-11-25T11:41:10.359Z,3.80
2018-11-25T11:43:37.909Z,3.90
2018-11-25T11:46:05.388Z,3.90
2018-11-25T11:48:32.844Z,3.90
2018-11-25T11:51:00.384Z,3.90
2018-11-25T11:53:27.845Z,4.00
2018-11-25T11:55:55.315Z,4.00
2018-11-25T11:58:23.916Z,4.10
2018-11-25T12:00:51.468Z,4.10
2018-11-25T12:03:26.297Z,4.10
2018-11-25T12:05:46.453Z,4.10
2018-11-25T12:08:13.932Z,4.10
2018-11-25T12:10:41.426Z,4.10
2018-11-25T12:13:08.989Z,4.10
2018-11-25T12:15:36.452Z,4.20
2018-11-25T12:18:04.785Z,4.20
2018-11-25T12:20:32.258Z,4.20
2018-11-25T12:22:59.719Z,4.10
2018-11-25T12:25:27.212Z,4.20
2018-11-25T12:27:54.782Z,4.20
2018-11-25T12:30:22.244Z,4.20
2018-11-25T12:32:50.479Z,4.20
2018-11-25T12:35:17.945Z,4.20
2018-11-25T12:37:45.397Z,4.20
2018-11-25T12:40:12.879Z,4.30
2018-11-25T12:42:41.112Z,4.30
2018-11-25T12:45:09.349Z,4.30
2018-11-25T12:47:36.810Z,4.30
2018-11-25T12:50:04.278Z,4.30
2018-11-25T12:52:31.886Z,4.30
2018-11-25T12:55:00.105Z,4.30
2018-11-25T12:57:27.701Z,4.30
2018-11-25T12:59:55.162Z,4.30
2018-11-25T13:02:22.728Z,4.30
2018-11-25T13:04:50.280Z,4.30
2018-11-25T13:07:17.757Z,4.30
2018-11-25T13:09:46.017Z,4.20
2018-11-25T13:12:13.548Z,4.20
2018-11-25T13:14:41.015Z,4.20
2018-11-25T13:17:08.474Z,4.30
2018-11-25T13:19:35.926Z,4.30
2018-11-25T13:22:04.641Z,4.30
2018-11-25T13:24:32.110Z,4.30
2018-11-25T13:26:59.690Z,4.30
2018-11-25T13:29:27.256Z,4.30
2018-11-25T13:31:54.833Z,4.20
2018-11-25T13:34:22.301Z,4.20
2018-11-25T13:36:50.526Z,4.30
2018-11-25T13:39:18.029Z,4.20
2018-11-25T13:41:45.496Z,4.30
2018-11-25T13:44:12.981Z,4.20
2018-11-25T13:46:41.192Z,4.20
2018-11-25T13:49:08.661Z,4.30
2018-11-25T13:51:36.116Z,4.20
2018-11-25T13:54:04.697Z,4.30
2018-11-25T13:56:32.149Z,4.20
2018-11-25T13:58:59.655Z,4.30
2018-11-25T14:01:27.218Z,4.30
2018-11-25T14:03:54.679Z,4.30
2018-11-25T14:06:22.905Z,4.30
2018-11-25T14:08:50.390Z,4.30
2018-11-25T14:11:17.865Z,4.20
2018-11-25T14:13:45.325Z,4.20
2018-11-25T14:16:12.896Z,4.30
2018-11-25T14:18:40.366Z,4.30
2018-11-25T14:21:07.939Z,4.30
2018-11-25T14:23:35.509Z,4.30
2018-11-25T14:26:04.401Z,4.30
2018-11-25T14:28:31.955Z,4.20
2018-11-25T14:30:59.429Z,4.30
2018-11-25T14:33:26.987Z,4.30
2018-11-25T14:35:56.650Z,4.30
2018-11-25T14:38:24.160Z,4.30
2018-11-25T14:40:51.723Z,4.30
2018-11-25T14:43:19.994Z,4.30
2018-11-25T14:45:47.463Z,4.30
2018-11-25T14:48:14.923Z,4.30
2018-11-25T14:50:42.383Z,4.30
2018-11-25T14:53:09.860Z,4.30
2018-11-25T14:55:37.409Z,4.30
2018-11-25T14:58:04.949Z,4.30
2018-11-25T15:00:32.435Z,4.30
2018-11-25T15:03:00.004Z,4.30
2018-11-25T15:05:27.559Z,4.30
2018-11-25T15:07:55.141Z,4.30
2018-11-25T15:10:22.619Z,4.30
2018-11-25T15:12:50.843Z,4.30
2018-11-25T15:15:18.316Z,4.30
2018-11-25T15:17:45.778Z,4.30
2018-11-25T15:20:13.399Z,4.30
2018-11-25T15:22:40.829Z,4.30
2018-11-25T15:25:08.294Z,4.30
2018-11-25T15:27:35.787Z,4.30
2018-11-25T15:30:04.638Z,4.30
2018-11-25T15:32:32.109Z,4.30
2018-11-25T15:35:00.363Z,4.30
2018-11-25T15:37:27.845Z,4.30
2018-11-25T15:39:55.384Z,4.30
2018-11-25T15:42:22.861Z,4.30
2018-11-25T15:44:50.321Z,4.30
2018-11-25T15:47:17.890Z,4.30
2018-11-25T15:49:45.367Z,4.30
2018-11-25T15:52:13.590Z,4.30
2018-11-25T15:54:41.096Z,4.30
2018-11-25T15:57:08.561Z,4.40
2018-11-25T15:59:37.543Z,4.30
2018-11-25T16:02:05.140Z,4.30
2018-11-25T16:04:32.604Z,4.40
2018-11-25T16:07:00.835Z,4.40
2018-11-25T16:09:28.329Z,4.40
2018-11-25T16:11:55.781Z,4.40
2018-11-25T16:14:23.249Z,4.40
2018-11-25T16:16:51.503Z,4.40
2018-11-25T16:19:19.001Z,4.30
2018-11-25T16:21:46.547Z,4.40
2018-11-25T16:24:14.162Z,4.30
2018-11-25T16:26:41.678Z,4.40
2018-11-25T16:29:09.237Z,4.40
2018-11-25T16:31:36.706Z,4.40
2018-11-25T16:34:05.664Z,4.40
2018-11-25T16:36:33.160Z,4.40
2018-11-25T16:39:00.629Z,4.40
2018-11-25T16:41:29.611Z,4.40
2018-11-25T16:43:57.063Z,4.40
2018-11-25T16:46:24.915Z,4.40
2018-11-25T16:48:52.364Z,4.40
2018-11-25T16:51:19.830Z,4.40
2018-11-25T16:53:47.297Z,4.40
2018-11-25T16:56:14.776Z,4.40
2018-11-25T16:58:42.230Z,4.40
2018-11-25T17:01:10.238Z,4.40
2018-11-25T17:03:37.189Z,4.40
2018-11-25T17:06:04.748Z,4.50
2018-11-25T17:08:32.307Z,4.50
2018-11-25T17:10:59.874Z,4.40
2018-11-25T17:13:27.340Z,4.40
2018-11-25T17:15:55.562Z,4.40
2018-11-25T17:18:23.026Z,4.40
2018-11-25T17:20:50.486Z,4.40
2018-11-25T17:23:17.959Z,4.50
2018-11-25T17:25:45.411Z,4.50
2018-11-25T17:28:12.885Z,4.50
2018-11-25T17:30:40.344Z,4.50
2018-11-25T17:33:07.848Z,4.50
2018-11-25T17:35:36.076Z,4.50
2018-11-25T17:38:04.812Z,4.50
2018-11-25T17:40:32.278Z,4.50
2018-11-25T17:42:59.730Z,4.50
2018-11-25T17:45:28.039Z,4.50
2018-11-25T17:47:55.489Z,4.50
2018-11-25T17:50:23.050Z,4.50
2018-11-25T17:52:50.515Z,4.50
2018-11-25T17:55:18.772Z,4.50
2018-11-25T17:57:46.236Z,4.50
2018-11-25T18:00:13.713Z,4.60
2018-11-25T18:02:41.181Z,4.60
2018-11-25T18:05:08.645Z,4.60
2018-11-25T18:07:37.732Z,4.60
2018-11-25T18:10:05.201Z,4.60
2018-11-25T18:12:32.751Z,4.60
2018-11-25T18:15:00.206Z,4.60
2018-11-25T18:17:27.779Z,4.60
2018-11-25T18:19:55.254Z,4.60
2018-11-25T18:22:22.723Z,4.60
2018-11-25T18:24:50.265Z,4.60
2018-11-25T18:27:17.835Z,4.60
2018-11-25T18:29:45.320Z,4.70
2018-11-25T18:32:12.786Z,4.70
2018-11-25T18:34:41.015Z,4.70
2018-11-25T18:37:08.598Z,4.60
2018-11-25T18:39:36.180Z,4.70
2018-11-25T18:42:04.437Z,4.70
2018-11-25T18:44:32.015Z,4.60
2018-11-25T18:46:59.572Z,4.70
2018-11-25T18:49:27.133Z,4.70
2018-11-25T18:51:56.124Z,4.70
2018-11-25T18:54:23.591Z,4.70
2018-11-25T18:56:51.071Z,4.70
2018-11-25T18:59:18.532Z,4.70
2018-11-25T19:01:46.809Z,4.80
2018-11-25T19:04:15.781Z,4.70
2018-11-25T19:06:43.259Z,4.70
2018-11-25T19:09:11.030Z,4.80
2018-11-25T19:11:38.484Z,4.80
2018-11-25T19:14:05.965Z,4.80
2018-11-25T19:16:33.429Z,4.80
2018-11-25T19:19:01.663Z,4.80
2018-11-25T19:21:29.122Z,4.80
2018-11-25T19:23:56.593Z,4.80
2018-11-25T19:26:24.049Z,4.80
2018-11-25T19:28:51.849Z,4.80
2018-11-25T19:31:19.410Z,4.80
2018-11-25T19:33:46.865Z,4.80
2018-11-25T19:36:14.328Z,4.80
2018-11-25T19:38:41.802Z,4.80
2018-11-25T19:41:10.904Z,4.80
2018-11-25T19:43:38.369Z,4.80
2018-11-25T19:46:05.837Z,4.80
2018-11-25T19:48:34.069Z,4.80
2018-11-25T19:51:01.539Z,4.80
2018-11-25T19:53:29.022Z,4.80
2018-11-25T19:55:56.571Z,4.80
2018-11-25T19:58:25.189Z,4.80
2018-11-25T20:00:52.664Z,4.80
2018-11-25T20:03:20.884Z,4.80
2018-11-25T20:05:48.351Z,4.80
2018-11-25T20:08:15.820Z,4.80
2018-11-25T20:10:43.282Z,4.80
2018-11-25T20:13:11.927Z,4.80
2018-11-25T20:15:38.228Z,4.80
2018-11-25T20:18:05.697Z,4.80
2018-11-25T20:20:33.176Z,4.80
2018-11-25T20:23:01.405Z,4.80
2018-11-25T20:25:28.873Z,4.80
2018-11-25T20:27:56.434Z,4.80
2018-11-25T20:30:23.913Z,4.80
2018-11-25T20:32:57.217Z,4.80
2018-11-25T20:35:24.672Z,4.80
2018-11-25T20:37:52.901Z,4.80
2018-11-25T20:40:20.365Z,4.80
2018-11-25T20:42:47.868Z,4.80
2018-11-25T20:45:15.316Z,4.80
2018-11-25T20:47:42.786Z,4.80
2018-11-25T20:50:10.352Z,4.80
2018-11-25T20:52:43.543Z,4.80
2018-11-25T20:55:11.113Z,4.80
2018-11-25T20:57:38.566Z,4.80
2018-11-25T21:00:06.046Z,4.80
2018-11-25T21:02:33.595Z,4.80
2018-11-25T21:05:01.059Z,4.80
2018-11-25T21:07:28.637Z,4.80
2018-11-25T21:09:56.100Z,4.80
2018-11-25T21:12:23.652Z,4.80
2018-11-25T21:14:51.423Z,4.80
2018-11-25T21:17:18.911Z,4.80
2018-11-25T21:19:47.146Z,4.90
2018-11-25T21:22:14.620Z,4.80
2018-11-25T21:24:42.181Z,4.90
2018-11-25T21:27:09.646Z,4.90
2018-11-25T21:29:37.197Z,4.90
2018-11-25T21:32:04.661Z,4.90
2018-11-25T21:34:32.122Z,4.90
2018-11-25T21:36:59.585Z,4.90
2018-11-25T21:39:27.067Z,4.90
2018-11-25T21:41:55.286Z,4.90
2018-11-25T21:44:22.745Z,4.80
2018-11-25T21:46:50.215Z,4.90
2018-11-25T21:49:17.669Z,4.90
2018-11-25T21:51:45.135Z,4.90
2018-11-25T21:54:12.947Z,4.90
2018-11-25T21:56:40.408Z,4.90
2018-11-25T21:59:07.876Z,4.90
2018-11-25T22:01:35.338Z,4.90
2018-11-25T22:04:03.817Z,4.90
2018-11-25T22:06:31.380Z,4.90
2018-11-25T22:08:58.827Z,4.90
2018-11-25T22:11:26.402Z,4.90
2018-11-25T22:13:53.973Z,4.90
2018-11-25T22:16:21.437Z,4.90
2018-11-25T22:18:48.908Z,4.90
2018-11-25T22:21:16.464Z,4.90
2018-11-25T22:23:44.014Z,4.90
2018-11-25T22:26:11.491Z,4.90
2018-11-25T22:28:39.049Z,4.90
2018-11-25T22:31:06.609Z,4.90
2018-11-25T22:33:34.185Z,4.90
2018-11-25T22:36:01.749Z,4.90
2018-11-25T22:38:29.211Z,4.90
2018-11-25T22:40:56.680Z,4.90
2018-11-25T22:43:24.139Z,4.90
2018-11-25T22:45:51.684Z,4.90
2018-11-25T22:48:19.261Z,4.90
2018-11-25T22:50:46.737Z,4.90
2018-11-25T22:53:14.284Z,4.90
2018-11-25T22:55:41.800Z,4.90
2018-11-25T22:58:09.258Z,4.90
2018-11-25T23:00:36.730Z,4.90
2018-11-25T23:03:04.598Z,4.90
2018-11-25T23:05:43.937Z,4.90
2018-11-25T23:08:11.397Z,4.90
2018-11-25T23:10:38.858Z,4.90
2018-11-25T23:13:06.325Z,4.90
2018-11-25T23:15:33.794Z,4.90
2018-11-25T23:18:01.265Z,4.90
2018-11-25T23:20:28.725Z,4.90
2018-11-25T23:22:56.306Z,4.90
2018-11-25T23:25:23.971Z,4.90
2018-11-25T23:27:51.442Z,4.90
2018-11-25T23:30:18.908Z,4.90
2018-11-25T23:32:46.460Z,5.00
2018-11-25T23:35:13.925Z,5.00
2018-11-25T23:37:41.392Z,5.00
2018-11-25T23:40:08.844Z,5.00
2018-11-25T23:42:37.818Z,5.00
2018-11-25T23:45:05.281Z,4.90
2018-11-25T23:47:32.865Z,5.00
2018-11-25T23:50:00.427Z,5.00
2018-11-25T23:52:27.888Z,5.00
2018-11-25T23:54:55.443Z,5.00
2018-11-25T23:57:23.029Z,5.00
2018-11-25T23:59:50.488Z,5.00
